Time;durP1;ratioP1;P1;durP2;ratioP2;P2;SDS_P1;SDS_P2;PMS_P1;PMS_P2;Temp;Humidity;BMP_temperature;BMP_pressure;BME280_temperature;BME280_humidity;BME280_pressure;Samples;Min_cycle;Max_cycle;Signal;HPM_P1;HPM_P2
2023/08/05 00:00:17;;;;;;;2.7;1.5;;;;;;;15.23;99.25684;935.3953;;;;
2023/08/05 00:02:42;;;;;;;2.6;1.3;;;;;;;15.28;99.68555;935.4091;;;;
2023/08/05 00:05:14;;;;;;;1.8;1.2;;;;;;;15.24;100;935.4025;;;;
2023/08/05 00:07:43;;;;;;;2.1;1.4;;;;;;;15.25;100;935.4208;;;;
2023/08/05 00:10:08;;;;;;;2.1;1.3;;;;;;;15.25;99.51563;935.3365;;;;
2023/08/05 00:12:37;;;;;;;2;1.3;;;;;;;15.21;99.46094;935.3432;;;;
2023/08/05 00:15:02;;;;;;;1.3;1.2;;;;;;;15.03;99.8584;935.323;;;;
2023/08/05 00:17:28;;;;;;;2.6;1.5;;;;;;;14.97;100;935.2609;;;;
2023/08/05 00:19:53;;;;;;;3.1;1.6;;;;;;;15.03;100;935.2437;;;;
2023/08/05 00:22:20;;;;;;;1.9;1.3;;;;;;;15.09;100;935.2863;;;;
2023/08/05 00:24:45;;;;;;;1.9;1.4;;;;;;;15.08;100;935.2687;;;;
2023/08/05 00:27:10;;;;;;;2.3;1.6;;;;;;;15.07;100;935.1902;;;;
2023/08/05 00:29:38;;;;;;;2.5;1.4;;;;;;;15.16;100;935.1699;;;;
2023/08/05 00:32:03;;;;;;;2.5;1.6;;;;;;;15.25;100;935.2434;;;;
2023/08/05 00:34:33;;;;;;;2;1.6;;;;;;;15.18;100;935.2433;;;;
2023/08/05 00:36:57;;;;;;;2.1;1.4;;;;;;;15.26;100;935.1841;;;;
2023/08/05 00:39:23;;;;;;;2.2;1.5;;;;;;;15.31;100;935.2355;;;;
2023/08/05 00:41:48;;;;;;;2.1;1.5;;;;;;;15.3;100;935.2541;;;;
2023/08/05 00:44:13;;;;;;;2.9;1.6;;;;;;;15.29;100;935.2871;;;;
2023/08/05 00:46:39;;;;;;;2.2;1.6;;;;;;;15.3;100;935.3038;;;;
2023/08/05 00:49:05;;;;;;;2.8;1.8;;;;;;;15.3;100;935.356;;;;
2023/08/05 00:51:30;;;;;;;2;1.6;;;;;;;15.31;100;935.2386;;;;
2023/08/05 00:53:55;;;;;;;1.7;1.4;;;;;;;15.33;100;935.1533;;;;
2023/08/05 00:56:20;;;;;;;2.1;1.6;;;;;;;15.39;100;935.0475;;;;
2023/08/05 00:58:48;;;;;;;2.5;1.4;;;;;;;15.44;100;934.9756;;;;
2023/08/05 01:01:13;;;;;;;2.4;1.6;;;;;;;15.39;100;934.7859;;;;
2023/08/05 01:03:38;;;;;;;2.9;1.8;;;;;;;15.33;100;934.7153;;;;
2023/08/05 01:06:03;;;;;;;2.7;1.3;;;;;;;15.39;100;934.8098;;;;
2023/08/05 01:08:28;;;;;;;2.1;1.5;;;;;;;15.36;100;934.8239;;;;
2023/08/05 01:10:53;;;;;;;2;1.5;;;;;;;15.44;100;934.7188;;;;
2023/08/05 01:13:18;;;;;;;1.9;1.4;;;;;;;15.47;99.6709;934.7078;;;;
2023/08/05 01:15:44;;;;;;;1.7;1.4;;;;;;;15.42;100;934.6902;;;;
2023/08/05 01:18:10;;;;;;;2.9;1.4;;;;;;;15.38;100;934.7009;;;;
2023/08/05 01:20:35;;;;;;;2.3;1.5;;;;;;;15.27;100;934.6738;;;;
2023/08/05 01:23:02;;;;;;;1.9;1.6;;;;;;;15.15;100;934.5131;;;;
2023/08/05 01:25:26;;;;;;;4.1;1.4;;;;;;;15.18;100;934.4981;;;;
2023/08/05 01:27:51;;;;;;;2.2;1.5;;;;;;;15.21;100;934.4656;;;;
2023/08/05 01:30:16;;;;;;;2.3;1.6;;;;;;;14.88;100;934.478;;;;
2023/08/05 01:32:41;;;;;;;3.4;1.6;;;;;;;14.81;100;934.4955;;;;
2023/08/05 01:35:06;;;;;;;1.7;1.5;;;;;;;14.9;100;934.4617;;;;
2023/08/05 01:37:31;;;;;;;2.7;1.5;;;;;;;15;100;934.3217;;;;
2023/08/05 01:39:57;;;;;;;2.1;1.3;;;;;;;15.09;100;934.21;;;;
2023/08/05 01:42:22;;;;;;;1.8;1.2;;;;;;;15.16;100;934.0856;;;;
2023/08/05 01:44:48;;;;;;;2.1;1.3;;;;;;;15.19;100;934.174;;;;
2023/08/05 01:47:14;;;;;;;2;1.5;;;;;;;15.24;100;934.1608;;;;
2023/08/05 01:49:39;;;;;;;1.8;1.3;;;;;;;15.28;100;934.0455;;;;
2023/08/05 01:52:05;;;;;;;1.5;1.4;;;;;;;15.32;100;933.8762;;;;
2023/08/05 01:55:03;;;;;;;1.6;1.4;;;;;;;15.35;100;933.7875;;;;
2023/08/05 01:57:28;;;;;;;2.1;1.4;;;;;;;15.16;100;933.8136;;;;
2023/08/05 01:59:57;;;;;;;1.2;1.1;;;;;;;15.05;100;933.9372;;;;
2023/08/05 02:02:23;;;;;;;1.2;1.1;;;;;;;15.06;100;934.0958;;;;
2023/08/05 02:04:50;;;;;;;2.6;1.3;;;;;;;14.99;100;934.1895;;;;
2023/08/05 02:07:50;;;;;;;1.8;1.6;;;;;;;15.03;100;934.3134;;;;
2023/08/05 02:10:09;;;;;;;2.2;1.4;;;;;;;15.04;100;934.4264;;;;
2023/08/05 02:12:34;;;;;;;2.6;1.6;;;;;;;15.16;100;934.2491;;;;
2023/08/05 02:14:59;;;;;;;1.8;1.2;;;;;;;15.13;100;934.1108;;;;
2023/08/05 02:17:25;;;;;;;2.1;1.5;;;;;;;15.12;100;934.0845;;;;
2023/08/05 02:19:53;;;;;;;2.5;1.3;;;;;;;15.21;100;934.0967;;;;
2023/08/05 02:22:18;;;;;;;1.6;1.4;;;;;;;15.24;100;934.1142;;;;
2023/08/05 02:24:47;;;;;;;2.3;1.2;;;;;;;15.06;100;934.0323;;;;
2023/08/05 02:27:13;;;;;;;1.8;1.4;;;;;;;14.97;100;934.0022;;;;
2023/08/05 02:29:39;;;;;;;1.2;1.1;;;;;;;14.96;100;934.1554;;;;
2023/08/05 02:32:04;;;;;;;2;1.6;;;;;;;14.9;100;934.2445;;;;
2023/08/05 02:34:29;;;;;;;2.2;1.5;;;;;;;14.87;100;934.341;;;;
2023/08/05 02:36:54;;;;;;;1.8;1.3;;;;;;;14.99;100;934.337;;;;
2023/08/05 02:39:21;;;;;;;2.4;1.5;;;;;;;15.08;100;934.4291;;;;
2023/08/05 02:41:47;;;;;;;2;1.4;;;;;;;15.01;100;934.3768;;;;
2023/08/05 02:44:43;;;;;;;1.6;1.3;;;;;;;15.12;100;934.1824;;;;
2023/08/05 02:50:36;;;;;;;1.7;1.6;;;;;;;15.14;100;934.1291;;;;
2023/08/05 02:53:01;;;;;;;1.7;1.5;;;;;;;15.2;100;934.2405;;;;
2023/08/05 02:55:27;;;;;;;1.8;1.3;;;;;;;15.2;100;934.3262;;;;
2023/08/05 02:57:52;;;;;;;1.8;1.3;;;;;;;15.21;100;934.3542;;;;
2023/08/05 03:00:19;;;;;;;1.8;1.3;;;;;;;15.31;100;934.4196;;;;
2023/08/05 03:02:44;;;;;;;1.6;1.4;;;;;;;15.4;100;934.4086;;;;
2023/08/05 03:05:15;;;;;;;1.6;1.4;;;;;;;15.31;100;934.4036;;;;
2023/08/05 03:07:42;;;;;;;1.6;1.3;;;;;;;15.32;100;934.4372;;;;
2023/08/05 03:10:07;;;;;;;1.4;1.3;;;;;;;15.3;100;934.4647;;;;
2023/08/05 03:12:33;;;;;;;1.9;1.5;;;;;;;15.21;100;934.4641;;;;
2023/08/05 03:14:58;;;;;;;2.5;1.4;;;;;;;15.16;100;934.5033;;;;
2023/08/05 03:17:27;;;;;;;2.1;1.4;;;;;;;15.21;100;934.5009;;;;
2023/08/05 03:19:52;;;;;;;1.3;1.2;;;;;;;15.28;100;934.4995;;;;
2023/08/05 03:22:19;;;;;;;1.8;1.5;;;;;;;15.23;100;934.5363;;;;
2023/08/05 03:24:44;;;;;;;1.7;1.3;;;;;;;15.24;100;934.5851;;;;
2023/08/05 03:27:10;;;;;;;1.3;1.1;;;;;;;15.25;100;934.4783;;;;
2023/08/05 03:29:35;;;;;;;1.4;1.1;;;;;;;15.17;100;934.3845;;;;
2023/08/05 03:32:02;;;;;;;1.1;1;;;;;;;15.08;100;934.3329;;;;
2023/08/05 03:34:27;;;;;;;2.5;1.1;;;;;;;15.1;100;934.3839;;;;
2023/08/05 03:36:53;;;;;;;2.3;1.1;;;;;;;15.15;100;934.481;;;;
2023/08/05 03:39:39;;;;;;;1;0.9;;;;;;;15.17;100;934.5946;;;;
2023/08/05 03:42:05;;;;;;;1.3;1.2;;;;;;;15.18;100;934.6874;;;;
2023/08/05 03:44:34;;;;;;;1.1;1;;;;;;;15.23;100;934.635;;;;
2023/08/05 03:47:03;;;;;;;2.4;1.4;;;;;;;15.25;100;934.5842;;;;
2023/08/05 03:49:27;;;;;;;3.2;1.3;;;;;;;15.21;100;934.6478;;;;
2023/08/05 03:51:52;;;;;;;1.6;1.1;;;;;;;15.09;100;934.6544;;;;
2023/08/05 03:54:17;;;;;;;1.7;1.1;;;;;;;15.01;100;934.5909;;;;
2023/08/05 03:56:43;;;;;;;1.2;1.1;;;;;;;15.02;100;934.6369;;;;
2023/08/05 03:59:08;;;;;;;1.1;1;;;;;;;15.1;100;934.6509;;;;
2023/08/05 04:02:36;;;;;;;1.1;0.9;;;;;;;15.01;100;934.6911;;;;
2023/08/05 04:05:36;;;;;;;1.1;1.1;;;;;;;14.94;100;934.5966;;;;
2023/08/05 04:08:03;;;;;;;1;1;;;;;;;14.91;100;934.625;;;;
2023/08/05 04:10:28;;;;;;;1.5;0.9;;;;;;;14.89;100;934.5997;;;;
2023/08/05 04:12:54;;;;;;;1;0.7;;;;;;;14.72;100;934.713;;;;
2023/08/05 04:15:19;;;;;;;1.7;1;;;;;;;14.8;100;934.6855;;;;
2023/08/05 04:17:44;;;;;;;1.1;0.8;;;;;;;14.68;100;934.6269;;;;
2023/08/05 04:20:17;;;;;;;1.2;0.9;;;;;;;14.67;100;934.7424;;;;
2023/08/05 04:22:41;;;;;;;0.9;0.8;;;;;;;14.63;100;934.7614;;;;
2023/08/05 04:25:15;;;;;;;1.2;0.9;;;;;;;14.75;100;934.642;;;;
2023/08/05 04:27:43;;;;;;;1.7;1.1;;;;;;;14.75;100;934.6766;;;;
2023/08/05 04:30:08;;;;;;;1.1;1;;;;;;;14.78;100;934.6666;;;;
2023/08/05 04:32:33;;;;;;;1.3;0.8;;;;;;;14.9;100;934.6108;;;;
2023/08/05 04:34:59;;;;;;;1.5;0.9;;;;;;;14.95;100;934.6711;;;;
2023/08/05 04:37:24;;;;;;;1.4;0.9;;;;;;;14.98;100;934.5136;;;;
2023/08/05 04:39:50;;;;;;;1.4;0.9;;;;;;;14.97;100;934.6379;;;;
2023/08/05 04:42:18;;;;;;;0.9;0.8;;;;;;;14.83;100;934.5661;;;;
2023/08/05 04:44:42;;;;;;;0.7;0.7;;;;;;;14.73;100;934.5421;;;;
2023/08/05 04:47:07;;;;;;;1;1;;;;;;;14.78;100;934.5351;;;;
2023/08/05 04:49:32;;;;;;;1;1;;;;;;;14.74;100;934.5396;;;;
2023/08/05 04:51:57;;;;;;;0.8;0.8;;;;;;;14.68;100;934.623;;;;
2023/08/05 04:54:24;;;;;;;0.8;0.8;;;;;;;14.68;100;934.6086;;;;
2023/08/05 04:56:49;;;;;;;0.7;0.7;;;;;;;14.85;100;934.5697;;;;
2023/08/05 04:59:15;;;;;;;0.7;0.7;;;;;;;14.83;100;934.5981;;;;
2023/08/05 05:01:40;;;;;;;0.9;0.8;;;;;;;14.82;100;934.5294;;;;
2023/08/05 05:04:07;;;;;;;1.1;0.8;;;;;;;14.76;100;934.4672;;;;
2023/08/05 05:06:32;;;;;;;0.9;0.8;;;;;;;14.77;100;934.4984;;;;
2023/08/05 05:08:57;;;;;;;0.8;0.8;;;;;;;14.71;100;934.5513;;;;
2023/08/05 05:11:23;;;;;;;1.1;1;;;;;;;14.86;100;934.6306;;;;
2023/08/05 05:13:50;;;;;;;1.2;1.1;;;;;;;14.87;100;934.681;;;;
2023/08/05 05:16:15;;;;;;;1.7;0.9;;;;;;;14.9;100;934.7086;;;;
2023/08/05 05:18:44;;;;;;;2.1;1.7;;;;;;;14.85;100;934.6933;;;;
2023/08/05 05:21:09;;;;;;;2.7;2.1;;;;;;;14.91;100;934.6523;;;;
2023/08/05 05:23:35;;;;;;;1.4;1.3;;;;;;;14.95;100;934.6967;;;;
2023/08/05 05:26:00;;;;;;;2.6;2.1;;;;;;;14.96;100;934.7744;;;;
2023/08/05 05:28:55;;;;;;;2;1.8;;;;;;;14.95;100;934.8242;;;;
2023/08/05 05:31:20;;;;;;;0.9;0.9;;;;;;;15.05;100;934.9017;;;;
2023/08/05 05:33:48;;;;;;;1.5;1.4;;;;;;;15.11;100;934.8273;;;;
2023/08/05 05:36:12;;;;;;;1.2;1.2;;;;;;;15.13;100;934.9769;;;;
2023/08/05 05:39:18;;;;;;;2;1.5;;;;;;;15.26;100;934.9763;;;;
2023/08/05 05:41:46;;;;;;;1.2;0.9;;;;;;;15.26;100;934.9434;;;;
2023/08/05 05:44:11;;;;;;;1.2;0.7;;;;;;;15.29;100;934.8987;;;;
2023/08/05 05:46:39;;;;;;;0.7;0.6;;;;;;;15.24;100;934.8875;;;;
2023/08/05 05:49:04;;;;;;;0.9;0.9;;;;;;;15.24;100;934.849;;;;
2023/08/05 05:51:29;;;;;;;1.1;0.9;;;;;;;15.23;100;934.9799;;;;
2023/08/05 05:53:57;;;;;;;1.2;1.1;;;;;;;15;100;934.9166;;;;
2023/08/05 05:56:20;;;;;;;0.8;0.8;;;;;;;15.05;100;934.8769;;;;
2023/08/05 05:58:47;;;;;;;1;0.8;;;;;;;15.17;100;934.8737;;;;
2023/08/05 06:01:13;;;;;;;0.7;0.7;;;;;;;15.3;100;935.0037;;;;
2023/08/05 06:03:40;;;;;;;0.7;0.7;;;;;;;15.4;100;935.0176;;;;
2023/08/05 06:06:04;;;;;;;0.8;0.7;;;;;;;15.46;100;934.9872;;;;
2023/08/05 06:08:29;;;;;;;0.6;0.6;;;;;;;15.38;100;934.9713;;;;
2023/08/05 06:11:22;;;;;;;0.6;0.6;;;;;;;15.46;100;934.9199;;;;
2023/08/05 06:13:50;;;;;;;1.1;1.1;;;;;;;15.57;100;934.9376;;;;
2023/08/05 06:16:15;;;;;;;0.7;0.7;;;;;;;15.51;100;935.0524;;;;
2023/08/05 06:18:40;;;;;;;1.2;0.9;;;;;;;15.57;100;935.041;;;;
2023/08/05 06:21:08;;;;;;;0.8;0.8;;;;;;;15.48;100;935.0383;;;;
2023/08/05 06:23:33;;;;;;;0.9;0.9;;;;;;;15.5;100;935.1192;;;;
2023/08/05 06:26:03;;;;;;;1.6;1.5;;;;;;;15.58;100;935.0489;;;;
2023/08/05 06:28:28;;;;;;;1.2;1.1;;;;;;;15.61;100;935.1314;;;;
2023/08/05 06:30:57;;;;;;;2.3;2.1;;;;;;;15.68;100;935.0986;;;;
2023/08/05 06:33:22;;;;;;;1.5;1.4;;;;;;;15.75;100;935.1264;;;;
2023/08/05 06:35:47;;;;;;;2.6;0.9;;;;;;;15.7;100;935.0895;;;;
2023/08/05 06:38:13;;;;;;;2.5;2.4;;;;;;;15.67;100;935.0505;;;;
2023/08/05 06:40:38;;;;;;;3.4;3.2;;;;;;;15.64;100;935.0406;;;;
2023/08/05 06:43:03;;;;;;;1.7;1.5;;;;;;;15.62;100;935.106;;;;
2023/08/05 06:45:31;;;;;;;2.5;2.4;;;;;;;15.72;100;935.0851;;;;
2023/08/05 06:47:55;;;;;;;1.6;1.5;;;;;;;15.73;100;935.0801;;;;
2023/08/05 06:50:24;;;;;;;1.7;1.6;;;;;;;15.77;100;935.1174;;;;
2023/08/05 06:52:49;;;;;;;1.2;1.1;;;;;;;15.8;100;935.1192;;;;
2023/08/05 06:55:18;;;;;;;1.1;1;;;;;;;15.86;100;935.1026;;;;
2023/08/05 06:57:42;;;;;;;2.1;1.4;;;;;;;15.88;100;935.103;;;;
2023/08/05 07:00:09;;;;;;;1.3;1.2;;;;;;;15.86;100;935.0527;;;;
2023/08/05 07:02:34;;;;;;;1.8;1.7;;;;;;;15.9;100;935.1348;;;;
2023/08/05 07:05:03;;;;;;;1.2;1.2;;;;;;;15.93;100;935.1905;;;;
2023/08/05 07:07:28;;;;;;;2.4;2.3;;;;;;;15.92;100;935.1456;;;;
2023/08/05 07:10:00;;;;;;;1.4;1.3;;;;;;;15.95;99.56055;935.1484;;;;
2023/08/05 07:12:18;;;;;;;1.6;1.5;;;;;;;16.01;99.96582;935.2592;;;;
2023/08/05 07:14:48;;;;;;;1;0.9;;;;;;;16.05;100;935.3567;;;;
2023/08/05 07:17:13;;;;;;;1.1;1.1;;;;;;;16.04;99.01172;935.3569;;;;
2023/08/05 07:19:38;;;;;;;4.7;3.2;;;;;;;16.06;100;935.4241;;;;
2023/08/05 07:22:07;;;;;;;2.3;2.2;;;;;;;16.02;100;935.3947;;;;
2023/08/05 07:24:32;;;;;;;1.4;1.3;;;;;;;15.91;100;935.3265;;;;
2023/08/05 07:27:03;;;;;;;1.8;1.3;;;;;;;15.87;99.2041;935.2598;;;;
2023/08/05 07:30:07;;;;;;;1.2;1.1;;;;;;;15.94;99.29004;935.1944;;;;
2023/08/05 07:32:16;;;;;;;1.3;1.2;;;;;;;15.92;100;935.1955;;;;
2023/08/05 07:34:41;;;;;;;0.7;0.7;;;;;;;15.89;100;935.2024;;;;
2023/08/05 07:37:09;;;;;;;0.7;0.7;;;;;;;15.87;100;935.2099;;;;
2023/08/05 07:39:36;;;;;;;1.3;1.2;;;;;;;15.94;100;935.2506;;;;
2023/08/05 07:41:59;;;;;;;1.3;1;;;;;;;15.85;100;935.1902;;;;
2023/08/05 07:44:26;;;;;;;0.8;0.8;;;;;;;15.84;100;935.2169;;;;
2023/08/05 07:46:52;;;;;;;0.7;0.7;;;;;;;15.66;100;935.184;;;;
2023/08/05 07:49:21;;;;;;;0.8;0.8;;;;;;;15.71;100;935.2089;;;;
2023/08/05 07:51:48;;;;;;;2.2;1.3;;;;;;;15.91;100;935.2405;;;;
2023/08/05 07:54:10;;;;;;;4.1;2.9;;;;;;;15.99;100;935.3013;;;;
2023/08/05 07:56:38;;;;;;;9.4;6.6;;;;;;;16.08;100;935.316;;;;
2023/08/05 07:59:01;;;;;;;1.8;1.6;;;;;;;15.87;99.70117;935.3064;;;;
2023/08/05 08:01:28;;;;;;;1.7;1.5;;;;;;;16.05;99.52441;935.3624;;;;
2023/08/05 08:03:54;;;;;;;1.6;1.5;;;;;;;15.99;99.41797;935.3847;;;;
2023/08/05 08:06:19;;;;;;;1.5;1.4;;;;;;;16.12;99.93457;935.3137;;;;
2023/08/05 08:08:44;;;;;;;6.3;5.7;;;;;;;16.1;100;935.269;;;;
2023/08/05 08:11:12;;;;;;;3.6;3.2;;;;;;;16.07;100;935.2608;;;;
2023/08/05 08:13:37;;;;;;;9.7;7.4;;;;;;;16.16;100;935.2303;;;;
2023/08/05 08:16:02;;;;;;;2.4;1.9;;;;;;;16.35;100;935.2419;;;;
2023/08/05 08:18:30;;;;;;;4.8;3.4;;;;;;;16.45;100;935.2605;;;;
2023/08/05 08:20:55;;;;;;;1.8;1.7;;;;;;;16.33;98.65137;935.3281;;;;
2023/08/05 08:23:22;;;;;;;2.9;2.1;;;;;;;16.25;99.23438;935.3279;;;;
2023/08/05 08:25:47;;;;;;;2.4;2.2;;;;;;;16.36;99.46973;935.3187;;;;
2023/08/05 08:28:13;;;;;;;3.1;2.5;;;;;;;16.51;98.98145;935.3276;;;;
2023/08/05 08:30:38;;;;;;;2.8;2.4;;;;;;;16.52;99.49219;935.321;;;;
2023/08/05 08:33:04;;;;;;;2.7;2.1;;;;;;;16.49;99.24121;935.1987;;;;
2023/08/05 08:35:29;;;;;;;2.9;2.7;;;;;;;16.58;99.69043;935.2943;;;;
2023/08/05 08:37:58;;;;;;;3.1;2.3;;;;;;;16.56;100;935.2938;;;;
2023/08/05 08:40:23;;;;;;;2.7;2.4;;;;;;;16.72;98.25195;935.33;;;;
2023/08/05 08:42:51;;;;;;;3.6;2.9;;;;;;;16.52;98.18457;935.4496;;;;
2023/08/05 08:45:16;;;;;;;3;2.6;;;;;;;16.57;98.37988;935.427;;;;
2023/08/05 08:47:46;;;;;;;2.9;2.7;;;;;;;16.61;98.42285;935.3677;;;;
2023/08/05 08:50:16;;;;;;;3.4;2.7;;;;;;;16.66;97.91406;935.3382;;;;
2023/08/05 08:52:41;;;;;;;3.1;2.8;;;;;;;16.65;97.66895;935.2289;;;;
2023/08/05 08:55:10;;;;;;;3.2;2.6;;;;;;;16.59;98.83789;935.3271;;;;
2023/08/05 08:57:34;;;;;;;3.1;2.8;;;;;;;16.67;97.68457;935.2498;;;;
2023/08/05 09:00:01;;;;;;;3;2.7;;;;;;;16.73;94.24707;935.1104;;;;
2023/08/05 09:02:26;;;;;;;3.3;2.7;;;;;;;16.82;96.05273;935.1378;;;;
2023/08/05 09:04:54;;;;;;;3.2;2.7;;;;;;;17.02;95.77148;935.1042;;;;
2023/08/05 09:07:19;;;;;;;3.6;2.9;;;;;;;17.04;95.68066;935.137;;;;
2023/08/05 09:09:47;;;;;;;2.8;2.5;;;;;;;17.01;92.61523;935.1614;;;;
2023/08/05 09:12:14;;;;;;;2.6;2.3;;;;;;;17;92.96094;935.1719;;;;
2023/08/05 09:14:41;;;;;;;2.9;2.4;;;;;;;17.09;93.1543;935.2847;;;;
2023/08/05 09:17:06;;;;;;;2.7;2.2;;;;;;;17.03;88.90137;935.2714;;;;
2023/08/05 09:19:36;;;;;;;3.6;2.6;;;;;;;17.01;93.0791;935.3045;;;;
2023/08/05 09:22:02;;;;;;;4.7;2.7;;;;;;;17.03;91.83105;935.3214;;;;
2023/08/05 09:24:27;;;;;;;3.1;2.8;;;;;;;16.54;93.90527;935.3223;;;;
2023/08/05 09:26:52;;;;;;;2.9;2.7;;;;;;;16.7;93.44238;935.2605;;;;
2023/08/05 09:29:17;;;;;;;3.2;2.7;;;;;;;16.8;94.04297;935.1741;;;;
2023/08/05 09:31:44;;;;;;;3.9;2.9;;;;;;;16.84;92.44238;935.2291;;;;
2023/08/05 09:34:08;;;;;;;3.7;3.2;;;;;;;16.94;92.61133;935.1749;;;;
2023/08/05 09:36:33;;;;;;;2.8;2.5;;;;;;;16.93;92.38965;935.2523;;;;
2023/08/05 09:38:58;;;;;;;4.2;3.7;;;;;;;17.05;93.48242;935.2927;;;;
2023/08/05 09:41:26;;;;;;;3.5;2.8;;;;;;;16.96;93.83398;935.1969;;;;
2023/08/05 09:43:51;;;;;;;3.2;2.9;;;;;;;16.96;92.74512;935.2235;;;;
2023/08/05 09:46:19;;;;;;;2.5;2.3;;;;;;;17.05;92.1377;935.2719;;;;
2023/08/05 09:48:43;;;;;;;2.5;2.3;;;;;;;17.12;89.68457;935.2374;;;;
2023/08/05 09:51:08;;;;;;;3.1;2.8;;;;;;;17.3;89.1875;935.2581;;;;
2023/08/05 09:53:34;;;;;;;3.2;2.8;;;;;;;17.42;91.36914;935.2872;;;;
2023/08/05 09:56:02;;;;;;;3.4;2.6;;;;;;;17.52;89.80957;935.319;;;;
2023/08/05 09:58:27;;;;;;;2.9;2.6;;;;;;;17.34;89.37891;935.1994;;;;
2023/08/05 10:00:53;;;;;;;3.4;2.7;;;;;;;17.22;91.2002;935.1802;;;;
2023/08/05 10:03:20;;;;;;;3.4;2.7;;;;;;;17.11;92.28906;935.1436;;;;
2023/08/05 10:05:47;;;;;;;3.4;2.7;;;;;;;17.11;93.67969;935.2441;;;;
2023/08/05 10:08:11;;;;;;;4.1;2.9;;;;;;;17.08;93.26855;935.2592;;;;
2023/08/05 10:10:38;;;;;;;5.3;4.2;;;;;;;16.99;94.22461;935.2028;;;;
2023/08/05 10:13:04;;;;;;;3.7;3.1;;;;;;;17.19;93.47852;935.0935;;;;
2023/08/05 10:15:31;;;;;;;2.9;2.6;;;;;;;17.35;91.71387;935.0776;;;;
2023/08/05 10:17:57;;;;;;;3;2.8;;;;;;;17.56;91.2002;935.0999;;;;
2023/08/05 10:20:23;;;;;;;2.9;2.4;;;;;;;17.69;90.68262;935.103;;;;
2023/08/05 10:22:48;;;;;;;2.7;2.2;;;;;;;17.84;91.81543;935.0943;;;;
2023/08/05 10:25:13;;;;;;;2.8;2.5;;;;;;;17.98;91.01953;935.0209;;;;
2023/08/05 10:27:40;;;;;;;2.7;2.5;;;;;;;18.15;92.32129;934.8895;;;;
2023/08/05 10:30:06;;;;;;;4.3;3.6;;;;;;;18.3;91.48145;934.8361;;;;
2023/08/05 10:32:35;;;;;;;2.5;2.3;;;;;;;18.41;89.41113;934.8736;;;;
2023/08/05 10:34:58;;;;;;;2.4;2.2;;;;;;;18.39;88.12891;934.8845;;;;
2023/08/05 10:37:24;;;;;;;2.5;2.2;;;;;;;18.41;89.16699;934.9574;;;;
2023/08/05 10:39:49;;;;;;;3.5;2.7;;;;;;;18.39;88.39648;934.9411;;;;
2023/08/05 10:42:14;;;;;;;3.1;2.2;;;;;;;18.46;86.68848;934.8605;;;;
2023/08/05 10:44:39;;;;;;;1.7;1.6;;;;;;;18.5;85.77832;934.8063;;;;
2023/08/05 10:47:05;;;;;;;2.1;1.9;;;;;;;18.68;86.16406;934.7986;;;;
2023/08/05 10:49:30;;;;;;;2.2;1.9;;;;;;;18.64;85.73535;934.7942;;;;
2023/08/05 10:51:58;;;;;;;2;1.8;;;;;;;18.56;86.08203;934.7877;;;;
2023/08/05 10:54:23;;;;;;;2.7;1.8;;;;;;;18.54;86.56641;934.7841;;;;
2023/08/05 10:56:48;;;;;;;2.1;1.9;;;;;;;18.36;87.43555;934.704;;;;
2023/08/05 10:59:15;;;;;;;2.3;2.1;;;;;;;18.29;87.44629;934.7316;;;;
2023/08/05 11:01:46;;;;;;;2.1;1.7;;;;;;;18.21;86.28027;934.7326;;;;
2023/08/05 11:04:16;;;;;;;2.1;1.9;;;;;;;18.24;87.98242;934.6498;;;;
2023/08/05 11:06:41;;;;;;;2;1.8;;;;;;;18.2;87.90527;934.6191;;;;
2023/08/05 11:09:09;;;;;;;1.6;1.5;;;;;;;18.17;87.2959;934.6127;;;;
2023/08/05 11:11:35;;;;;;;1.5;1.4;;;;;;;18.33;87.75586;934.5371;;;;
2023/08/05 11:14:00;;;;;;;2.3;1.5;;;;;;;18.28;85.45703;934.5158;;;;
2023/08/05 11:16:26;;;;;;;1.7;1.6;;;;;;;18.31;85.25391;934.4933;;;;
2023/08/05 11:18:53;;;;;;;1.7;1.5;;;;;;;18.21;85.33887;934.4899;;;;
2023/08/05 11:21:18;;;;;;;2.4;1.7;;;;;;;18.08;85.79102;934.4296;;;;
2023/08/05 11:23:45;;;;;;;2.4;1.7;;;;;;;17.91;86.16504;934.3851;;;;
2023/08/05 11:26:09;;;;;;;2;1.6;;;;;;;18.02;86.13867;934.3882;;;;
2023/08/05 11:28:36;;;;;;;2.1;1.9;;;;;;;18.16;88.29102;934.3647;;;;
2023/08/05 11:31:02;;;;;;;2.4;1.7;;;;;;;18.11;87.79199;934.3589;;;;
2023/08/05 11:33:27;;;;;;;1.6;1.5;;;;;;;18.2;87.58008;934.3903;;;;
2023/08/05 11:35:56;;;;;;;1.8;1.7;;;;;;;18.24;88.15625;934.3348;;;;
2023/08/05 11:38:18;;;;;;;2.4;1.7;;;;;;;18.14;87.82324;934.3356;;;;
2023/08/05 11:40:43;;;;;;;3;1.9;;;;;;;18.09;87.39551;934.2472;;;;
2023/08/05 11:43:08;;;;;;;2.4;2;;;;;;;17.93;88.17578;934.2286;;;;
2023/08/05 11:45:38;;;;;;;2.1;1.9;;;;;;;17.86;89.71777;934.207;;;;
2023/08/05 11:48:03;;;;;;;2.1;1.9;;;;;;;17.98;90.97461;934.195;;;;
2023/08/05 11:50:28;;;;;;;2.2;2;;;;;;;18.08;90.01758;934.2194;;;;
2023/08/05 11:52:58;;;;;;;2.4;2.2;;;;;;;18.02;87.82227;934.1223;;;;
2023/08/05 11:55:23;;;;;;;2.3;2.1;;;;;;;18.07;87.04395;934.1238;;;;
2023/08/05 11:57:49;;;;;;;2.8;2.1;;;;;;;17.96;89.35645;934.0634;;;;
2023/08/05 12:00:14;;;;;;;2.2;1.9;;;;;;;18.03;86.5918;934.0394;;;;
2023/08/05 12:02:42;;;;;;;1.6;1.5;;;;;;;18.1;86.375;934.1021;;;;
2023/08/05 12:05:07;;;;;;;3.2;1.9;;;;;;;18;85.76172;934.031;;;;
2023/08/05 12:07:32;;;;;;;2;1.8;;;;;;;17.98;85.16699;934.0403;;;;
2023/08/05 12:09:57;;;;;;;2;1.8;;;;;;;17.92;88.2793;934.0233;;;;
2023/08/05 12:12:25;;;;;;;1.9;1.7;;;;;;;18.02;87.49707;934;;;;
2023/08/05 12:14:50;;;;;;;3.5;2.9;;;;;;;18.15;87.12793;933.9662;;;;
2023/08/05 12:17:18;;;;;;;2.4;1.9;;;;;;;18.2;86.33691;934.043;;;;
2023/08/05 12:19:43;;;;;;;2.5;1.8;;;;;;;18.14;87.06738;934.0736;;;;
2023/08/05 12:22:40;;;;;;;2.6;1.7;;;;;;;18.19;85.07031;934.0189;;;;
2023/08/05 12:25:10;;;;;;;1.9;1.7;;;;;;;18.25;84.17383;934.037;;;;
2023/08/05 12:27:36;;;;;;;1.5;1.4;;;;;;;18.23;82.32227;933.9294;;;;
2023/08/05 12:30:00;;;;;;;1.6;1.5;;;;;;;18.17;83.35449;933.9447;;;;
2023/08/05 12:32:29;;;;;;;1.9;1.8;;;;;;;18.3;83.19434;933.988;;;;
2023/08/05 12:34:55;;;;;;;2.7;1.7;;;;;;;18.35;82.36816;933.9997;;;;
2023/08/05 12:37:20;;;;;;;1.5;1.4;;;;;;;18.28;84.59766;934.0402;;;;
2023/08/05 12:39:45;;;;;;;2;1.7;;;;;;;18.21;85.26758;934.0403;;;;
2023/08/05 12:42:10;;;;;;;1.8;1.6;;;;;;;18.16;85.56055;934.0053;;;;
2023/08/05 12:44:35;;;;;;;2.4;1.8;;;;;;;18.26;83.80371;933.9924;;;;
2023/08/05 12:47:00;;;;;;;2.4;1.4;;;;;;;18.26;83.79004;933.9925;;;;
2023/08/05 12:49:26;;;;;;;1.5;1.4;;;;;;;18.21;84.59375;934.0081;;;;
2023/08/05 12:51:51;;;;;;;3.6;1.8;;;;;;;18.15;86.31445;934.0458;;;;
2023/08/05 12:54:19;;;;;;;1.6;1.5;;;;;;;18;87.39941;934.0883;;;;
2023/08/05 12:56:44;;;;;;;3.3;2.1;;;;;;;17.75;87.32715;934.0959;;;;
2023/08/05 12:59:09;;;;;;;2.7;1.7;;;;;;;17.57;87.48926;934.0449;;;;
2023/08/05 13:01:35;;;;;;;2.9;1.9;;;;;;;17.47;88.24805;934.1124;;;;
2023/08/05 13:06:46;;;;;;;2.4;1.8;;;;;;;17.24;93.28906;934.1337;;;;
2023/08/05 13:09:11;;;;;;;2.1;1.9;;;;;;;17.19;94.2666;934.1086;;;;
2023/08/05 13:11:37;;;;;;;2.5;1.9;;;;;;;17.28;93.48438;934.0981;;;;
2023/08/05 13:14:02;;;;;;;2.7;1.7;;;;;;;17.29;93.08984;934.0472;;;;
2023/08/05 13:16:27;;;;;;;1.7;1.6;;;;;;;17.39;91.41992;934.0834;;;;
2023/08/05 13:18:52;;;;;;;4;2;;;;;;;17.49;91.7666;934.1152;;;;
2023/08/05 13:21:17;;;;;;;3.2;2.3;;;;;;;17.61;90.6543;934.0849;;;;
2023/08/05 13:23:43;;;;;;;2.8;2;;;;;;;17.77;89.54785;934.0455;;;;
2023/08/05 13:26:08;;;;;;;2.3;1.9;;;;;;;17.87;89.35938;933.9885;;;;
2023/08/05 13:28:35;;;;;;;3.3;2.1;;;;;;;17.94;88.50488;933.9664;;;;
2023/08/05 13:31:00;;;;;;;2;1.8;;;;;;;18.08;86.39258;933.9076;;;;
2023/08/05 13:33:25;;;;;;;2.5;1.9;;;;;;;18.11;87.79199;933.9769;;;;
2023/08/05 13:35:50;;;;;;;3.1;2.5;;;;;;;17.93;86.78223;933.9539;;;;
2023/08/05 13:38:17;;;;;;;2.6;2.1;;;;;;;18.02;86.2666;933.9993;;;;
2023/08/05 13:40:42;;;;;;;3.3;2.7;;;;;;;18.15;86.59277;934.0065;;;;
2023/08/05 13:43:10;;;;;;;2.7;2.3;;;;;;;18.19;86.41797;934.0253;;;;
2023/08/05 13:45:35;;;;;;;2.9;2.3;;;;;;;18.19;87.17285;934.0786;;;;
2023/08/05 13:48:01;;;;;;;3.7;2.4;;;;;;;18.15;85.74512;934.0354;;;;
2023/08/05 13:50:26;;;;;;;2.2;2;;;;;;;18.23;84.16895;933.9981;;;;
2023/08/05 13:52:51;;;;;;;2.3;2.1;;;;;;;18.27;83.94531;934.0107;;;;
2023/08/05 13:55:16;;;;;;;2.6;1.9;;;;;;;18.34;83.02734;933.9444;;;;
2023/08/05 13:57:43;;;;;;;3;2;;;;;;;18.37;83.56836;933.8605;;;;
2023/08/05 14:00:08;;;;;;;2.2;2;;;;;;;18.3;83.47363;933.9084;;;;
2023/08/05 14:02:33;;;;;;;2.7;2.3;;;;;;;18.17;86.79395;933.9044;;;;
2023/08/05 14:04:59;;;;;;;2.4;2.2;;;;;;;18.04;85.20117;933.8739;;;;
2023/08/05 14:07:24;;;;;;;2.7;2.2;;;;;;;17.94;89.45508;933.9487;;;;
2023/08/05 14:09:49;;;;;;;2.3;2.1;;;;;;;17.99;88.14258;933.8886;;;;
2023/08/05 14:12:16;;;;;;;3.2;2.3;;;;;;;17.97;87.09375;933.9423;;;;
2023/08/05 14:14:41;;;;;;;2.9;2.1;;;;;;;18.04;87.38672;933.8295;;;;
2023/08/05 14:17:11;;;;;;;2.1;1.9;;;;;;;18.06;86.7168;933.7791;;;;
2023/08/05 14:19:36;;;;;;;2.5;2.2;;;;;;;18.11;88.44434;933.8253;;;;
2023/08/05 14:22:06;;;;;;;2.5;1.8;;;;;;;18.04;87.15234;933.8691;;;;
2023/08/05 14:24:31;;;;;;;2.9;1.8;;;;;;;18.19;85.87012;933.9376;;;;
2023/08/05 14:26:59;;;;;;;2.3;2.1;;;;;;;18.12;86.64746;933.9289;;;;
2023/08/05 14:29:24;;;;;;;2.3;2.1;;;;;;;18.02;86.67285;933.9089;;;;
2023/08/05 14:31:52;;;;;;;2.1;1.9;;;;;;;18.05;86.38965;933.9476;;;;
2023/08/05 14:34:17;;;;;;;2.7;2.4;;;;;;;17.99;87.36426;933.9668;;;;
2023/08/05 14:36:42;;;;;;;2.2;2;;;;;;;17.98;87.45508;933.9283;;;;
2023/08/05 14:39:08;;;;;;;4;2;;;;;;;17.93;88.79199;933.9489;;;;
2023/08/05 14:41:34;;;;;;;2.1;1.9;;;;;;;17.59;88.02637;933.9292;;;;
2023/08/05 14:43:58;;;;;;;2.2;1.8;;;;;;;17.52;88.38477;933.9494;;;;
2023/08/05 14:46:24;;;;;;;2.1;1.9;;;;;;;17.63;88.22266;933.992;;;;
2023/08/05 14:48:52;;;;;;;2;1.8;;;;;;;17.58;88.40918;934.0269;;;;
2023/08/05 14:51:16;;;;;;;2.1;1.9;;;;;;;17.57;89.02051;933.9708;;;;
2023/08/05 14:53:41;;;;;;;2.1;1.7;;;;;;;17.43;90.01367;934.0491;;;;
2023/08/05 14:56:54;;;;;;;4;1.9;;;;;;;17.37;90.62695;934.0131;;;;
2023/08/05 14:59:21;;;;;;;2.3;1.8;;;;;;;17.55;91.32617;934.0333;;;;
2023/08/05 15:01:46;;;;;;;2.3;1.9;;;;;;;17.63;92.0625;933.9978;;;;